sensor_id;sensor_type;location;lat;lon;timestamp;P1;durP1;ratioP1;P2;durP2;ratioP2
7340;SDS011;6870;50.944;6.932;2023-02-21T00:01:43;4.50;;;3.00;;
7340;SDS011;6870;50.944;6.932;2023-02-21T00:04:29;2.80;;;2.60;;
7340;SDS011;6870;50.944;6.932;2023-02-21T00:07:15;5.53;;;3.40;;
7340;SDS011;6870;50.944;6.932;2023-02-21T00:10:00;7.43;;;3.37;;
7340;SDS011;6870;50.944;6.932;2023-02-21T00:12:47;10.30;;;2.80;;
7340;SDS011;6870;50.944;6.932;2023-02-21T00:15:34;5.93;;;3.33;;
7340;SDS011;6870;50.944;6.932;2023-02-21T00:18:19;2.93;;;2.73;;
7340;SDS011;6870;50.944;6.932;2023-02-21T00:21:05;4.80;;;3.27;;
7340;SDS011;6870;50.944;6.932;2023-02-21T00:23:51;3.17;;;2.63;;
7340;SDS011;6870;50.944;6.932;2023-02-21T00:26:37;3.30;;;2.97;;
7340;SDS011;6870;50.944;6.932;2023-02-21T00:29:22;4.10;;;3.10;;
7340;SDS011;6870;50.944;6.932;2023-02-21T00:32:10;4.70;;;2.90;;
7340;SDS011;6870;50.944;6.932;2023-02-21T00:34:55;3.50;;;3.20;;
7340;SDS011;6870;50.944;6.932;2023-02-21T00:37:41;3.40;;;3.10;;
7340;SDS011;6870;50.944;6.932;2023-02-21T00:40:26;5.67;;;2.93;;
7340;SDS011;6870;50.944;6.932;2023-02-21T00:43:12;3.87;;;3.10;;
7340;SDS011;6870;50.944;6.932;2023-02-21T00:46:01;3.73;;;3.43;;
7340;SDS011;6870;50.944;6.932;2023-02-21T00:48:48;3.73;;;3.40;;
7340;SDS011;6870;50.944;6.932;2023-02-21T00:51:34;5.23;;;3.00;;
7340;SDS011;6870;50.944;6.932;2023-02-21T00:54:19;3.13;;;2.63;;
7340;SDS011;6870;50.944;6.932;2023-02-21T00:57:05;2.83;;;2.50;;
7340;SDS011;6870;50.944;6.932;2023-02-21T00:59:51;3.47;;;2.70;;
7340;SDS011;6870;50.944;6.932;2023-02-21T01:02:37;3.90;;;3.03;;
7340;SDS011;6870;50.944;6.932;2023-02-21T01:05:24;4.50;;;2.83;;
7340;SDS011;6870;50.944;6.932;2023-02-21T01:08:10;3.97;;;3.60;;
7340;SDS011;6870;50.944;6.932;2023-02-21T01:10:56;3.73;;;3.43;;
7340;SDS011;6870;50.944;6.932;2023-02-21T01:13:42;3.30;;;3.00;;
7340;SDS011;6870;50.944;6.932;2023-02-21T01:16:28;4.30;;;3.90;;
7340;SDS011;6870;50.944;6.932;2023-02-21T01:19:15;5.97;;;2.90;;
7340;SDS011;6870;50.944;6.932;2023-02-21T01:22:03;6.60;;;3.20;;
7340;SDS011;6870;50.944;6.932;2023-02-21T01:24:49;3.60;;;3.30;;
7340;SDS011;6870;50.944;6.932;2023-02-21T01:27:35;3.90;;;3.17;;
7340;SDS011;6870;50.944;6.932;2023-02-21T01:30:21;4.17;;;3.27;;
7340;SDS011;6870;50.944;6.932;2023-02-21T01:33:07;4.10;;;3.10;;
7340;SDS011;6870;50.944;6.932;2023-02-21T01:35:53;7.60;;;3.40;;
7340;SDS011;6870;50.944;6.932;2023-02-21T01:38:40;4.23;;;3.90;;
7340;SDS011;6870;50.944;6.932;2023-02-21T01:41:26;5.53;;;3.53;;
7340;SDS011;6870;50.944;6.932;2023-02-21T01:44:26;4.63;;;3.70;;
7340;SDS011;6870;50.944;6.932;2023-02-21T01:47:17;3.83;;;3.43;;
7340;SDS011;6870;50.944;6.932;2023-02-21T01:50:05;4.50;;;3.60;;
7340;SDS011;6870;50.944;6.932;2023-02-21T01:52:58;3.67;;;3.37;;
7340;SDS011;6870;50.944;6.932;2023-02-21T01:55:49;4.30;;;3.70;;
7340;SDS011;6870;50.944;6.932;2023-02-21T01:58:34;5.13;;;4.30;;
7340;SDS011;6870;50.944;6.932;2023-02-21T02:01:24;21.10;;;16.90;;
7340;SDS011;6870;50.944;6.932;2023-02-21T02:04:18;22.50;;;16.63;;
7340;SDS011;6870;50.944;6.932;2023-02-21T02:07:04;18.93;;;16.43;;
7340;SDS011;6870;50.944;6.932;2023-02-21T02:09:50;21.17;;;18.53;;
7340;SDS011;6870;50.944;6.932;2023-02-21T02:16:05;24.43;;;13.10;;
7340;SDS011;6870;50.944;6.932;2023-02-21T02:18:44;22.17;;;12.07;;
7340;SDS011;6870;50.944;6.932;2023-02-21T02:21:52;17.43;;;11.13;;
7340;SDS011;6870;50.944;6.932;2023-02-21T02:24:57;20.33;;;11.43;;
7340;SDS011;6870;50.944;6.932;2023-02-21T02:27:39;17.10;;;10.83;;
7340;SDS011;6870;50.944;6.932;2023-02-21T02:36:37;12.33;;;8.93;;
7340;SDS011;6870;50.944;6.932;2023-02-21T02:39:11;15.93;;;10.43;;
7340;SDS011;6870;50.944;6.932;2023-02-21T02:41:51;12.53;;;8.90;;
7340;SDS011;6870;50.944;6.932;2023-02-21T02:44:28;16.50;;;9.40;;
7340;SDS011;6870;50.944;6.932;2023-02-21T02:47:03;9.80;;;7.70;;
7340;SDS011;6870;50.944;6.932;2023-02-21T02:49:35;11.07;;;8.30;;
7340;SDS011;6870;50.944;6.932;2023-02-21T02:52:09;9.77;;;7.30;;
7340;SDS011;6870;50.944;6.932;2023-02-21T02:54:37;11.00;;;8.13;;
7340;SDS011;6870;50.944;6.932;2023-02-21T02:57:06;9.37;;;7.63;;
7340;SDS011;6870;50.944;6.932;2023-02-21T02:59:38;14.50;;;7.40;;
7340;SDS011;6870;50.944;6.932;2023-02-21T03:02:16;9.73;;;8.03;;
7340;SDS011;6870;50.944;6.932;2023-02-21T03:05:07;11.00;;;6.57;;
7340;SDS011;6870;50.944;6.932;2023-02-21T03:07:54;13.77;;;8.40;;
7340;SDS011;6870;50.944;6.932;2023-02-21T03:10:34;9.20;;;6.70;;
7340;SDS011;6870;50.944;6.932;2023-02-21T03:13:11;10.27;;;6.77;;
7340;SDS011;6870;50.944;6.932;2023-02-21T03:15:44;8.70;;;6.47;;
7340;SDS011;6870;50.944;6.932;2023-02-21T03:18:17;9.30;;;6.77;;
7340;SDS011;6870;50.944;6.932;2023-02-21T03:20:52;7.30;;;6.00;;
7340;SDS011;6870;50.944;6.932;2023-02-21T03:23:26;13.70;;;6.40;;
7340;SDS011;6870;50.944;6.932;2023-02-21T03:25:58;9.50;;;6.67;;
7340;SDS011;6870;50.944;6.932;2023-02-21T03:28:31;9.90;;;6.00;;
7340;SDS011;6870;50.944;6.932;2023-02-21T03:31:00;8.67;;;6.67;;
7340;SDS011;6870;50.944;6.932;2023-02-21T03:33:31;8.83;;;6.53;;
7340;SDS011;6870;50.944;6.932;2023-02-21T03:36:01;8.83;;;6.23;;
7340;SDS011;6870;50.944;6.932;2023-02-21T03:38:34;5.90;;;5.30;;
7340;SDS011;6870;50.944;6.932;2023-02-21T03:41:02;7.17;;;5.77;;
7340;SDS011;6870;50.944;6.932;2023-02-21T03:43:30;11.33;;;6.67;;
7340;SDS011;6870;50.944;6.932;2023-02-21T03:45:58;10.10;;;6.53;;
7340;SDS011;6870;50.944;6.932;2023-02-21T03:48:26;10.67;;;5.73;;
7340;SDS011;6870;50.944;6.932;2023-02-21T03:50:58;7.50;;;5.13;;
7340;SDS011;6870;50.944;6.932;2023-02-21T03:53:26;9.60;;;5.80;;
7340;SDS011;6870;50.944;6.932;2023-02-21T03:55:55;7.50;;;6.10;;
7340;SDS011;6870;50.944;6.932;2023-02-21T03:58:23;7.33;;;5.43;;
7340;SDS011;6870;50.944;6.932;2023-02-21T04:00:51;8.80;;;6.67;;
7340;SDS011;6870;50.944;6.932;2023-02-21T04:03:20;6.60;;;5.53;;
7340;SDS011;6870;50.944;6.932;2023-02-21T04:05:48;7.30;;;6.30;;
7340;SDS011;6870;50.944;6.932;2023-02-21T04:08:16;6.67;;;5.97;;
7340;SDS011;6870;50.944;6.932;2023-02-21T04:10:44;9.27;;;5.37;;
7340;SDS011;6870;50.944;6.932;2023-02-21T04:13:19;11.70;;;5.20;;
7340;SDS011;6870;50.944;6.932;2023-02-21T04:15:48;7.20;;;6.10;;
7340;SDS011;6870;50.944;6.932;2023-02-21T04:18:16;6.47;;;5.30;;
7340;SDS011;6870;50.944;6.932;2023-02-21T04:20:44;5.73;;;5.13;;
7340;SDS011;6870;50.944;6.932;2023-02-21T04:23:14;6.57;;;5.57;;
7340;SDS011;6870;50.944;6.932;2023-02-21T04:25:43;8.63;;;5.20;;
7340;SDS011;6870;50.944;6.932;2023-02-21T04:28:12;6.63;;;5.23;;
7340;SDS011;6870;50.944;6.932;2023-02-21T04:30:41;9.10;;;6.07;;
7340;SDS011;6870;50.944;6.932;2023-02-21T04:33:09;10.13;;;5.40;;
7340;SDS011;6870;50.944;6.932;2023-02-21T04:35:38;7.40;;;5.50;;
7340;SDS011;6870;50.944;6.932;2023-02-21T04:38:06;6.23;;;5.60;;
7340;SDS011;6870;50.944;6.932;2023-02-21T04:40:34;12.40;;;5.33;;
7340;SDS011;6870;50.944;6.932;2023-02-21T04:43:02;5.50;;;4.50;;
7340;SDS011;6870;50.944;6.932;2023-02-21T04:45:30;5.47;;;4.90;;
7340;SDS011;6870;50.944;6.932;2023-02-21T04:47:59;6.30;;;5.43;;
7340;SDS011;6870;50.944;6.932;2023-02-21T04:50:27;5.40;;;4.90;;
7340;SDS011;6870;50.944;6.932;2023-02-21T04:52:55;5.70;;;5.10;;
7340;SDS011;6870;50.944;6.932;2023-02-21T04:55:24;5.50;;;4.90;;
7340;SDS011;6870;50.944;6.932;2023-02-21T04:57:52;6.90;;;5.27;;
7340;SDS011;6870;50.944;6.932;2023-02-21T05:00:20;5.73;;;5.13;;
7340;SDS011;6870;50.944;6.932;2023-02-21T05:02:49;5.17;;;4.67;;
7340;SDS011;6870;50.944;6.932;2023-02-21T05:05:18;5.20;;;4.50;;
7340;SDS011;6870;50.944;6.932;2023-02-21T05:07:46;13.43;;;5.33;;
7340;SDS011;6870;50.944;6.932;2023-02-21T05:10:14;7.73;;;5.27;;
7340;SDS011;6870;50.944;6.932;2023-02-21T05:12:42;6.00;;;5.40;;
7340;SDS011;6870;50.944;6.932;2023-02-21T05:15:11;5.43;;;4.90;;
7340;SDS011;6870;50.944;6.932;2023-02-21T05:17:40;10.67;;;5.53;;
7340;SDS011;6870;50.944;6.932;2023-02-21T05:20:08;6.53;;;4.63;;
7340;SDS011;6870;50.944;6.932;2023-02-21T05:22:39;5.90;;;4.90;;
7340;SDS011;6870;50.944;6.932;2023-02-21T05:25:13;5.00;;;4.50;;
7340;SDS011;6870;50.944;6.932;2023-02-21T05:27:42;5.50;;;4.57;;
7340;SDS011;6870;50.944;6.932;2023-02-21T05:30:11;5.30;;;4.80;;
7340;SDS011;6870;50.944;6.932;2023-02-21T05:32:40;5.10;;;4.37;;
7340;SDS011;6870;50.944;6.932;2023-02-21T05:35:09;6.23;;;5.60;;
7340;SDS011;6870;50.944;6.932;2023-02-21T05:37:39;6.53;;;5.50;;
7340;SDS011;6870;50.944;6.932;2023-02-21T05:40:08;5.80;;;5.20;;
7340;SDS011;6870;50.944;6.932;2023-02-21T05:42:38;5.03;;;4.50;;
7340;SDS011;6870;50.944;6.932;2023-02-21T05:45:06;6.80;;;4.47;;
7340;SDS011;6870;50.944;6.932;2023-02-21T05:47:35;4.53;;;4.13;;
7340;SDS011;6870;50.944;6.932;2023-02-21T05:50:04;5.93;;;5.17;;
7340;SDS011;6870;50.944;6.932;2023-02-21T05:52:32;5.87;;;4.87;;
7340;SDS011;6870;50.944;6.932;2023-02-21T05:55:02;5.33;;;4.83;;
7340;SDS011;6870;50.944;6.932;2023-02-21T05:57:30;5.20;;;4.37;;
7340;SDS011;6870;50.944;6.932;2023-02-21T06:00:04;7.43;;;4.47;;
7340;SDS011;6870;50.944;6.932;2023-02-21T06:02:34;5.50;;;4.70;;
7340;SDS011;6870;50.944;6.932;2023-02-21T06:05:02;8.60;;;4.47;;
7340;SDS011;6870;50.944;6.932;2023-02-21T06:07:31;4.90;;;4.40;;
7340;SDS011;6870;50.944;6.932;2023-02-21T06:09:59;5.20;;;4.70;;
7340;SDS011;6870;50.944;6.932;2023-02-21T06:12:28;4.50;;;4.07;;
7340;SDS011;6870;50.944;6.932;2023-02-21T06:14:56;4.63;;;4.17;;
7340;SDS011;6870;50.944;6.932;2023-02-21T06:17:24;5.93;;;4.37;;
7340;SDS011;6870;50.944;6.932;2023-02-21T06:19:54;7.10;;;4.50;;
7340;SDS011;6870;50.944;6.932;2023-02-21T06:22:23;5.47;;;4.07;;
7340;SDS011;6870;50.944;6.932;2023-02-21T06:24:51;5.23;;;4.73;;
7340;SDS011;6870;50.944;6.932;2023-02-21T06:27:19;5.70;;;4.43;;
7340;SDS011;6870;50.944;6.932;2023-02-21T06:29:48;6.03;;;4.67;;
7340;SDS011;6870;50.944;6.932;2023-02-21T06:32:16;5.70;;;4.37;;
7340;SDS011;6870;50.944;6.932;2023-02-21T06:34:44;5.50;;;4.63;;
7340;SDS011;6870;50.944;6.932;2023-02-21T06:37:13;5.07;;;4.40;;
7340;SDS011;6870;50.944;6.932;2023-02-21T06:39:40;7.77;;;4.30;;
7340;SDS011;6870;50.944;6.932;2023-02-21T06:42:10;5.63;;;5.13;;
7340;SDS011;6870;50.944;6.932;2023-02-21T06:44:41;6.60;;;4.47;;
7340;SDS011;6870;50.944;6.932;2023-02-21T06:47:11;4.60;;;3.80;;
7340;SDS011;6870;50.944;6.932;2023-02-21T06:49:39;5.60;;;4.13;;
7340;SDS011;6870;50.944;6.932;2023-02-21T06:52:08;6.00;;;5.30;;
7340;SDS011;6870;50.944;6.932;2023-02-21T06:54:36;4.67;;;3.83;;
7340;SDS011;6870;50.944;6.932;2023-02-21T06:57:04;6.20;;;4.43;;
7340;SDS011;6870;50.944;6.932;2023-02-21T06:59:33;6.40;;;4.63;;
7340;SDS011;6870;50.944;6.932;2023-02-21T07:02:01;5.63;;;4.67;;
7340;SDS011;6870;50.944;6.932;2023-02-21T07:04:31;11.77;;;6.00;;
7340;SDS011;6870;50.944;6.932;2023-02-21T07:06:59;8.43;;;4.50;;
7340;SDS011;6870;50.944;6.932;2023-02-21T07:09:27;5.83;;;5.03;;
7340;SDS011;6870;50.944;6.932;2023-02-21T07:11:55;9.00;;;4.40;;
7340;SDS011;6870;50.944;6.932;2023-02-21T07:14:23;6.80;;;4.40;;
7340;SDS011;6870;50.944;6.932;2023-02-21T07:16:51;11.10;;;4.87;;
7340;SDS011;6870;50.944;6.932;2023-02-21T07:19:19;13.73;;;6.50;;
7340;SDS011;6870;50.944;6.932;2023-02-21T07:21:48;5.40;;;4.27;;
7340;SDS011;6870;50.944;6.932;2023-02-21T07:24:16;6.17;;;4.17;;
7340;SDS011;6870;50.944;6.932;2023-02-21T07:26:44;10.37;;;5.03;;
7340;SDS011;6870;50.944;6.932;2023-02-21T07:29:12;5.43;;;4.40;;
7340;SDS011;6870;50.944;6.932;2023-02-21T07:31:40;5.00;;;4.50;;
7340;SDS011;6870;50.944;6.932;2023-02-21T07:34:08;7.00;;;5.33;;
7340;SDS011;6870;50.944;6.932;2023-02-21T07:36:37;5.67;;;5.07;;
7340;SDS011;6870;50.944;6.932;2023-02-21T07:39:07;5.13;;;4.63;;
7340;SDS011;6870;50.944;6.932;2023-02-21T07:41:35;9.43;;;5.40;;
7340;SDS011;6870;50.944;6.932;2023-02-21T07:44:03;6.00;;;4.47;;
7340;SDS011;6870;50.944;6.932;2023-02-21T07:46:33;9.80;;;4.77;;
7340;SDS011;6870;50.944;6.932;2023-02-21T07:49:01;7.50;;;4.83;;
7340;SDS011;6870;50.944;6.932;2023-02-21T07:51:29;5.90;;;4.23;;
7340;SDS011;6870;50.944;6.932;2023-02-21T07:53:57;6.90;;;5.37;;
7340;SDS011;6870;50.944;6.932;2023-02-21T07:56:26;6.97;;;4.60;;
7340;SDS011;6870;50.944;6.932;2023-02-21T07:58:55;7.50;;;4.30;;
7340;SDS011;6870;50.944;6.932;2023-02-21T08:01:23;7.90;;;4.97;;
7340;SDS011;6870;50.944;6.932;2023-02-21T08:03:52;6.83;;;4.90;;
7340;SDS011;6870;50.944;6.932;2023-02-21T08:06:20;4.53;;;4.10;;
7340;SDS011;6870;50.944;6.932;2023-02-21T08:08:48;7.80;;;5.07;;
7340;SDS011;6870;50.944;6.932;2023-02-21T08:11:16;5.17;;;4.13;;
7340;SDS011;6870;50.944;6.932;2023-02-21T08:13:46;8.20;;;5.17;;
7340;SDS011;6870;50.944;6.932;2023-02-21T08:16:14;4.73;;;4.00;;
7340;SDS011;6870;50.944;6.932;2023-02-21T08:18:42;9.87;;;5.00;;
7340;SDS011;6870;50.944;6.932;2023-02-21T08:21:13;6.67;;;4.80;;
7340;SDS011;6870;50.944;6.932;2023-02-21T08:23:41;7.63;;;5.00;;
7340;SDS011;6870;50.944;6.932;2023-02-21T08:26:09;8.60;;;4.43;;
7340;SDS011;6870;50.944;6.932;2023-02-21T08:28:37;10.97;;;5.80;;
7340;SDS011;6870;50.944;6.932;2023-02-21T08:31:07;5.23;;;3.67;;
7340;SDS011;6870;50.944;6.932;2023-02-21T08:33:35;5.80;;;4.40;;
7340;SDS011;6870;50.944;6.932;2023-02-21T08:36:03;8.20;;;4.37;;
7340;SDS011;6870;50.944;6.932;2023-02-21T08:38:32;7.00;;;4.70;;
7340;SDS011;6870;50.944;6.932;2023-02-21T08:41:00;6.20;;;4.37;;
7340;SDS011;6870;50.944;6.932;2023-02-21T08:43:29;4.80;;;3.93;;
7340;SDS011;6870;50.944;6.932;2023-02-21T08:45:58;5.73;;;4.63;;
7340;SDS011;6870;50.944;6.932;2023-02-21T08:48:28;7.83;;;5.00;;
7340;SDS011;6870;50.944;6.932;2023-02-21T08:50:56;4.83;;;4.23;;
7340;SDS011;6870;50.944;6.932;2023-02-21T08:53:24;8.30;;;4.37;;
7340;SDS011;6870;50.944;6.932;2023-02-21T08:55:52;7.13;;;4.40;;
7340;SDS011;6870;50.944;6.932;2023-02-21T08:58:20;7.53;;;4.97;;
7340;SDS011;6870;50.944;6.932;2023-02-21T09:00:48;5.00;;;4.50;;
7340;SDS011;6870;50.944;6.932;2023-02-21T09:03:16;6.20;;;4.00;;
7340;SDS011;6870;50.944;6.932;2023-02-21T09:05:46;5.17;;;3.80;;
7340;SDS011;6870;50.944;6.932;2023-02-21T09:08:14;20.17;;;12.50;;
7340;SDS011;6870;50.944;6.932;2023-02-21T09:10:45;24.63;;;16.80;;
7340;SDS011;6870;50.944;6.932;2023-02-21T09:13:14;25.50;;;17.63;;
7340;SDS011;6870;50.944;6.932;2023-02-21T09:15:42;22.53;;;15.03;;
7340;SDS011;6870;50.944;6.932;2023-02-21T09:18:10;28.00;;;18.43;;
7340;SDS011;6870;50.944;6.932;2023-02-21T09:20:38;26.67;;;16.07;;
7340;SDS011;6870;50.944;6.932;2023-02-21T09:23:08;23.47;;;16.23;;
7340;SDS011;6870;50.944;6.932;2023-02-21T09:25:36;25.70;;;16.93;;
7340;SDS011;6870;50.944;6.932;2023-02-21T09:28:04;24.03;;;17.23;;
7340;SDS011;6870;50.944;6.932;2023-02-21T09:30:32;27.20;;;17.67;;
7340;SDS011;6870;50.944;6.932;2023-02-21T09:33:01;23.80;;;17.07;;
7340;SDS011;6870;50.944;6.932;2023-02-21T09:35:29;27.60;;;17.50;;
7340;SDS011;6870;50.944;6.932;2023-02-21T09:37:57;25.03;;;16.77;;
7340;SDS011;6870;50.944;6.932;2023-02-21T09:40:29;17.03;;;11.00;;
7340;SDS011;6870;50.944;6.932;2023-02-21T09:43:03;26.23;;;14.70;;
7340;SDS011;6870;50.944;6.932;2023-02-21T09:45:37;17.87;;;11.10;;
7340;SDS011;6870;50.944;6.932;2023-02-21T09:48:06;21.83;;;10.50;;
7340;SDS011;6870;50.944;6.932;2023-02-21T09:50:39;18.53;;;9.60;;
7340;SDS011;6870;50.944;6.932;2023-02-21T09:53:13;17.63;;;8.67;;
7340;SDS011;6870;50.944;6.932;2023-02-21T09:55:48;15.40;;;8.13;;
7340;SDS011;6870;50.944;6.932;2023-02-21T09:58:19;14.33;;;8.50;;
7340;SDS011;6870;50.944;6.932;2023-02-21T10:00:48;20.70;;;7.30;;
7340;SDS011;6870;50.944;6.932;2023-02-21T10:03:21;14.60;;;6.67;;
7340;SDS011;6870;50.944;6.932;2023-02-21T10:06:09;9.40;;;7.10;;
7340;SDS011;6870;50.944;6.932;2023-02-21T10:08:48;11.83;;;5.90;;
7340;SDS011;6870;50.944;6.932;2023-02-21T10:11:30;10.73;;;6.13;;
7340;SDS011;6870;50.944;6.932;2023-02-21T10:14:14;9.90;;;6.50;;
7340;SDS011;6870;50.944;6.932;2023-02-21T10:16:52;11.40;;;6.53;;
7340;SDS011;6870;50.944;6.932;2023-02-21T10:19:28;14.40;;;6.17;;
7340;SDS011;6870;50.944;6.932;2023-02-21T10:22:01;12.27;;;6.13;;
7340;SDS011;6870;50.944;6.932;2023-02-21T10:24:41;10.77;;;5.80;;
7340;SDS011;6870;50.944;6.932;2023-02-21T10:27:12;8.80;;;5.80;;
7340;SDS011;6870;50.944;6.932;2023-02-21T10:29:46;9.10;;;6.10;;
7340;SDS011;6870;50.944;6.932;2023-02-21T10:32:21;7.33;;;6.13;;
7340;SDS011;6870;50.944;6.932;2023-02-21T10:34:51;9.10;;;5.47;;
7340;SDS011;6870;50.944;6.932;2023-02-21T10:37:24;10.53;;;5.47;;
7340;SDS011;6870;50.944;6.932;2023-02-21T10:40:01;11.13;;;5.57;;
7340;SDS011;6870;50.944;6.932;2023-02-21T10:42:39;8.40;;;5.37;;
7340;SDS011;6870;50.944;6.932;2023-02-21T10:45:14;10.47;;;5.30;;
7340;SDS011;6870;50.944;6.932;2023-02-21T10:47:47;9.50;;;5.67;;
7340;SDS011;6870;50.944;6.932;2023-02-21T10:50:37;10.70;;;5.40;;
7340;SDS011;6870;50.944;6.932;2023-02-21T10:53:21;11.27;;;5.97;;
7340;SDS011;6870;50.944;6.932;2023-02-21T10:56:17;8.07;;;5.83;;
7340;SDS011;6870;50.944;6.932;2023-02-21T10:58:55;7.43;;;5.10;;
7340;SDS011;6870;50.944;6.932;2023-02-21T11:01:30;7.97;;;5.17;;
7340;SDS011;6870;50.944;6.932;2023-02-21T11:04:03;10.33;;;6.53;;
7340;SDS011;6870;50.944;6.932;2023-02-21T11:06:35;8.17;;;5.20;;
7340;SDS011;6870;50.944;6.932;2023-02-21T11:12:03;7.70;;;5.03;;
7340;SDS011;6870;50.944;6.932;2023-02-21T11:14:46;7.60;;;5.17;;
7340;SDS011;6870;50.944;6.932;2023-02-21T11:18:01;8.73;;;5.30;;
7340;SDS011;6870;50.944;6.932;2023-02-21T11:20:32;5.43;;;4.67;;
7340;SDS011;6870;50.944;6.932;2023-02-21T11:23:00;9.17;;;4.97;;
7340;SDS011;6870;50.944;6.932;2023-02-21T11:25:32;7.10;;;5.00;;
7340;SDS011;6870;50.944;6.932;2023-02-21T11:28:06;5.17;;;3.87;;
7340;SDS011;6870;50.944;6.932;2023-02-21T11:30:49;6.93;;;5.37;;
7340;SDS011;6870;50.944;6.932;2023-02-21T11:33:39;4.77;;;4.10;;
7340;SDS011;6870;50.944;6.932;2023-02-21T11:36:15;5.67;;;4.30;;
7340;SDS011;6870;50.944;6.932;2023-02-21T11:39:01;6.70;;;4.70;;
7340;SDS011;6870;50.944;6.932;2023-02-21T11:41:36;8.10;;;5.40;;
7340;SDS011;6870;50.944;6.932;2023-02-21T11:44:26;11.10;;;5.40;;
7340;SDS011;6870;50.944;6.932;2023-02-21T11:47:00;11.53;;;7.50;;
7340;SDS011;6870;50.944;6.932;2023-02-21T11:49:42;13.97;;;8.20;;
7340;SDS011;6870;50.944;6.932;2023-02-21T11:52:27;16.47;;;9.60;;
7340;SDS011;6870;50.944;6.932;2023-02-21T11:55:02;18.57;;;10.13;;
7340;SDS011;6870;50.944;6.932;2023-02-21T11:57:33;18.33;;;9.63;;
7340;SDS011;6870;50.944;6.932;2023-02-21T12:00:15;22.70;;;11.47;;
7340;SDS011;6870;50.944;6.932;2023-02-21T12:02:53;19.77;;;11.87;;
7340;SDS011;6870;50.944;6.932;2023-02-21T12:05:33;20.60;;;10.33;;
7340;SDS011;6870;50.944;6.932;2023-02-21T12:08:22;19.30;;;11.77;;
7340;SDS011;6870;50.944;6.932;2023-02-21T12:11:12;20.83;;;13.17;;
7340;SDS011;6870;50.944;6.932;2023-02-21T12:13:55;23.00;;;13.00;;
7340;SDS011;6870;50.944;6.932;2023-02-21T12:16:40;25.00;;;11.00;;
7340;SDS011;6870;50.944;6.932;2023-02-21T12:19:26;24.87;;;12.00;;
7340;SDS011;6870;50.944;6.932;2023-02-21T12:22:13;17.83;;;10.60;;
7340;SDS011;6870;50.944;6.932;2023-02-21T12:24:57;15.53;;;10.80;;
7340;SDS011;6870;50.944;6.932;2023-02-21T12:27:42;16.97;;;12.03;;
7340;SDS011;6870;50.944;6.932;2023-02-21T12:30:28;14.50;;;9.67;;
7340;SDS011;6870;50.944;6.932;2023-02-21T12:33:17;19.50;;;10.97;;
7340;SDS011;6870;50.944;6.932;2023-02-21T12:35:57;17.67;;;9.93;;
7340;SDS011;6870;50.944;6.932;2023-02-21T12:41:48;16.15;;;10.73;;
7340;SDS011;6870;50.944;6.932;2023-02-21T12:44:38;19.90;;;9.63;;
7340;SDS011;6870;50.944;6.932;2023-02-21T12:47:22;16.47;;;10.73;;
7340;SDS011;6870;50.944;6.932;2023-02-21T12:49:57;16.93;;;10.43;;
7340;SDS011;6870;50.944;6.932;2023-02-21T12:52:31;14.90;;;9.27;;
7340;SDS011;6870;50.944;6.932;2023-02-21T12:55:06;14.63;;;10.30;;
7340;SDS011;6870;50.944;6.932;2023-02-21T12:57:44;13.90;;;9.40;;
7340;SDS011;6870;50.944;6.932;2023-02-21T13:00:20;19.45;;;10.43;;
7340;SDS011;6870;50.944;6.932;2023-02-21T13:02:57;43.15;;;26.63;;
7340;SDS011;6870;50.944;6.932;2023-02-21T13:05:32;34.97;;;24.00;;
7340;SDS011;6870;50.944;6.932;2023-02-21T13:08:08;32.40;;;25.20;;
7340;SDS011;6870;50.944;6.932;2023-02-21T13:10:49;36.30;;;24.90;;
7340;SDS011;6870;50.944;6.932;2023-02-21T13:13:25;36.80;;;25.07;;
7340;SDS011;6870;50.944;6.932;2023-02-21T13:16:01;36.27;;;25.07;;
7340;SDS011;6870;50.944;6.932;2023-02-21T13:18:32;41.20;;;25.07;;
7340;SDS011;6870;50.944;6.932;2023-02-21T13:21:06;38.37;;;25.73;;
7340;SDS011;6870;50.944;6.932;2023-02-21T13:23:49;33.97;;;23.37;;
7340;SDS011;6870;50.944;6.932;2023-02-21T13:27:17;34.60;;;23.67;;
7340;SDS011;6870;50.944;6.932;2023-02-21T13:30:16;36.87;;;24.50;;
7340;SDS011;6870;50.944;6.932;2023-02-21T13:32:53;35.77;;;23.47;;
7340;SDS011;6870;50.944;6.932;2023-02-21T13:35:25;39.67;;;26.90;;
7340;SDS011;6870;50.944;6.932;2023-02-21T13:37:57;33.95;;;26.95;;
7340;SDS011;6870;50.944;6.932;2023-02-21T13:40:32;38.80;;;26.30;;
7340;SDS011;6870;50.944;6.932;2023-02-21T13:43:05;34.00;;;24.97;;
7340;SDS011;6870;50.944;6.932;2023-02-21T13:45:41;34.90;;;24.47;;
7340;SDS011;6870;50.944;6.932;2023-02-21T13:50:59;34.13;;;24.10;;
7340;SDS011;6870;50.944;6.932;2023-02-21T13:53:28;31.93;;;23.90;;
7340;SDS011;6870;50.944;6.932;2023-02-21T14:02:15;39.30;;;24.17;;
7340;SDS011;6870;50.944;6.932;2023-02-21T14:05:02;35.20;;;20.90;;
7340;SDS011;6870;50.944;6.932;2023-02-21T14:07:40;28.10;;;20.70;;
7340;SDS011;6870;50.944;6.932;2023-02-21T14:10:25;24.27;;;18.17;;
7340;SDS011;6870;50.944;6.932;2023-02-21T14:13:05;27.70;;;17.90;;
7340;SDS011;6870;50.944;6.932;2023-02-21T14:15:48;26.47;;;17.10;;
7340;SDS011;6870;50.944;6.932;2023-02-21T14:18:24;19.70;;;15.27;;
7340;SDS011;6870;50.944;6.932;2023-02-21T14:20:57;21.60;;;15.50;;
7340;SDS011;6870;50.944;6.932;2023-02-21T14:23:38;22.57;;;15.60;;
7340;SDS011;6870;50.944;6.932;2023-02-21T14:29:12;19.40;;;14.70;;
7340;SDS011;6870;50.944;6.932;2023-02-21T14:32:15;22.93;;;15.00;;
7340;SDS011;6870;50.944;6.932;2023-02-21T14:34:54;21.40;;;13.13;;
7340;SDS011;6870;50.944;6.932;2023-02-21T14:37:26;20.50;;;14.00;;
7340;SDS011;6870;50.944;6.932;2023-02-21T14:40:00;18.93;;;14.63;;
7340;SDS011;6870;50.944;6.932;2023-02-21T14:42:45;18.37;;;13.83;;
7340;SDS011;6870;50.944;6.932;2023-02-21T14:45:32;18.73;;;13.03;;
7340;SDS011;6870;50.944;6.932;2023-02-21T14:54:35;19.20;;;13.87;;
7340;SDS011;6870;50.944;6.932;2023-02-21T14:57:33;15.67;;;11.77;;
7340;SDS011;6870;50.944;6.932;2023-02-21T15:00:24;15.70;;;12.77;;
7340;SDS011;6870;50.944;6.932;2023-02-21T15:03:04;16.40;;;12.43;;
7340;SDS011;6870;50.944;6.932;2023-02-21T15:05:39;14.63;;;11.67;;
7340;SDS011;6870;50.944;6.932;2023-02-21T15:08:17;16.60;;;11.80;;
7340;SDS011;6870;50.944;6.932;2023-02-21T15:10:50;16.83;;;12.80;;
7340;SDS011;6870;50.944;6.932;2023-02-21T15:13:22;13.77;;;11.03;;
7340;SDS011;6870;50.944;6.932;2023-02-21T15:15:55;14.77;;;12.00;;
7340;SDS011;6870;50.944;6.932;2023-02-21T15:18:26;17.07;;;11.97;;
7340;SDS011;6870;50.944;6.932;2023-02-21T15:21:01;15.50;;;12.20;;
7340;SDS011;6870;50.944;6.932;2023-02-21T15:23:45;15.97;;;12.57;;
7340;SDS011;6870;50.944;6.932;2023-02-21T15:26:19;15.27;;;12.40;;
7340;SDS011;6870;50.944;6.932;2023-02-21T15:29:02;13.97;;;11.77;;
7340;SDS011;6870;50.944;6.932;2023-02-21T15:31:32;16.83;;;11.13;;
7340;SDS011;6870;50.944;6.932;2023-02-21T15:34:02;16.10;;;12.50;;
7340;SDS011;6870;50.944;6.932;2023-02-21T15:36:30;13.27;;;11.83;;
7340;SDS011;6870;50.944;6.932;2023-02-21T15:39:01;16.60;;;11.73;;
7340;SDS011;6870;50.944;6.932;2023-02-21T15:41:35;14.47;;;12.10;;
7340;SDS011;6870;50.944;6.932;2023-02-21T15:44:09;13.53;;;11.57;;
7340;SDS011;6870;50.944;6.932;2023-02-21T15:46:43;14.77;;;10.80;;
7340;SDS011;6870;50.944;6.932;2023-02-21T15:49:18;14.13;;;11.23;;
7340;SDS011;6870;50.944;6.932;2023-02-21T15:51:51;14.80;;;11.73;;
7340;SDS011;6870;50.944;6.932;2023-02-21T15:54:24;16.67;;;11.53;;
7340;SDS011;6870;50.944;6.932;2023-02-21T15:57:01;13.10;;;11.30;;
7340;SDS011;6870;50.944;6.932;2023-02-21T15:59:42;14.20;;;12.00;;
7340;SDS011;6870;50.944;6.932;2023-02-21T16:02:15;16.83;;;10.83;;
7340;SDS011;6870;50.944;6.932;2023-02-21T16:04:51;15.00;;;10.73;;
7340;SDS011;6870;50.944;6.932;2023-02-21T16:07:20;11.53;;;9.60;;
7340;SDS011;6870;50.944;6.932;2023-02-21T16:09:58;15.07;;;11.93;;
7340;SDS011;6870;50.944;6.932;2023-02-21T16:12:33;15.70;;;10.90;;
7340;SDS011;6870;50.944;6.932;2023-02-21T16:15:06;13.00;;;9.40;;
7340;SDS011;6870;50.944;6.932;2023-02-21T16:17:53;13.10;;;10.97;;
7340;SDS011;6870;50.944;6.932;2023-02-21T16:20:25;14.33;;;10.70;;
7340;SDS011;6870;50.944;6.932;2023-02-21T16:25:55;12.50;;;9.83;;
7340;SDS011;6870;50.944;6.932;2023-02-21T16:28:27;11.77;;;10.57;;
7340;SDS011;6870;50.944;6.932;2023-02-21T16:30:56;15.00;;;10.30;;
7340;SDS011;6870;50.944;6.932;2023-02-21T16:33:26;13.37;;;11.00;;